createdAt,value
2022-08-31T00:03:08.741Z,99600.22
2022-08-31T00:06:04.580Z,99609.13
2022-08-31T00:08:53.413Z,99606.97
2022-08-31T00:11:43.391Z,99605.88
2022-08-31T00:14:32.771Z,99606.47
2022-08-31T00:17:21.617Z,99606.69
2022-08-31T00:20:33.916Z,99605.88
2022-08-31T00:23:27.739Z,99612.78
2022-08-31T00:26:22.520Z,99612.78
2022-08-31T00:29:12.923Z,99609.03
2022-08-31T00:32:09.829Z,99610.00
2022-08-31T00:35:08.611Z,99594.22
2022-08-31T00:38:41.586Z,99596.88
2022-08-31T00:41:38.964Z,99596.75
2022-08-31T00:44:27.140Z,99596.16
2022-08-31T00:47:17.227Z,99598.31
2022-08-31T00:50:25.566Z,99593.13
2022-08-31T00:53:25.475Z,99597.94
2022-08-31T00:56:17.839Z,99589.41
2022-08-31T00:59:13.963Z,99593.31
2022-08-31T01:02:03.321Z,99599.72
2022-08-31T01:04:51.711Z,99620.03
2022-08-31T01:07:41.224Z,99636.91
2022-08-31T01:10:35.953Z,99635.81
2022-08-31T01:13:27.100Z,99630.03
2022-08-31T01:16:27.134Z,99619.59
2022-08-31T01:19:26.533Z,99629.31
2022-08-31T01:22:35.672Z,99634.06
2022-08-31T01:25:34.065Z,99641.94
2022-08-31T01:28:22.696Z,99633.97
2022-08-31T01:31:26.440Z,99634.44
2022-08-31T01:34:22.481Z,99630.53
2022-08-31T01:37:18.042Z,99641.13
2022-08-31T01:40:24.863Z,99643.00
2022-08-31T01:43:36.596Z,99633.97
2022-08-31T01:46:27.397Z,99632.09
2022-08-31T01:49:18.872Z,99636.28
2022-08-31T01:52:14.787Z,99635.53
2022-08-31T01:55:05.558Z,99637.22
2022-08-31T01:57:54.119Z,99636.91
2022-08-31T02:01:31.289Z,99634.84
2022-08-31T02:04:24.675Z,99642.81
2022-08-31T02:07:16.022Z,99639.38
2022-08-31T02:10:04.774Z,99638.56
2022-08-31T02:12:52.609Z,99625.63
2022-08-31T02:15:51.263Z,99630.41
2022-08-31T02:18:40.451Z,99635.72
2022-08-31T02:21:28.460Z,99626.78
2022-08-31T02:24:16.125Z,99627.84
2022-08-31T02:27:04.137Z,99630.03
2022-08-31T02:29:52.299Z,99642.78
2022-08-31T02:32:39.962Z,99637.78
2022-08-31T02:35:29.298Z,99642.91
2022-08-31T02:38:17.083Z,99646.81
2022-08-31T02:41:07.553Z,99634.97
2022-08-31T02:43:57.956Z,99636.00
2022-08-31T02:46:46.657Z,99642.69
2022-08-31T02:49:49.804Z,99647.53
2022-08-31T02:52:39.194Z,99652.63
2022-08-31T02:55:30.074Z,99648.41
2022-08-31T02:58:23.381Z,99645.78
2022-08-31T03:01:12.325Z,99642.31
2022-08-31T03:04:03.060Z,99651.06
2022-08-31T03:06:51.018Z,99648.41
2022-08-31T03:09:40.930Z,99644.19
2022-08-31T03:12:31.597Z,99645.78
2022-08-31T03:15:21.901Z,99651.06
2022-08-31T03:18:10.330Z,99655.56
2022-08-31T03:20:58.483Z,99652.13
2022-08-31T03:23:46.518Z,99655.88
2022-08-31T03:26:36.034Z,99643.69
2022-08-31T03:29:23.959Z,99646.66
2022-08-31T03:32:14.737Z,99655.97
2022-08-31T03:35:07.056Z,99650.97
2022-08-31T03:37:55.119Z,99651.25
2022-08-31T03:40:46.268Z,99653.41
2022-08-31T03:43:35.546Z,99653.72
2022-08-31T03:46:24.030Z,99655.59
2022-08-31T03:49:14.909Z,99669.44
2022-08-31T03:52:15.360Z,99662.06
2022-08-31T03:55:11.785Z,99671.09
2022-08-31T03:58:01.734Z,99669.50
2022-08-31T04:00:54.534Z,99671.69
2022-08-31T04:04:02.370Z,99673.84
2022-08-31T04:07:09.169Z,99682.06
2022-08-31T04:10:16.683Z,99681.59
2022-08-31T04:13:31.033Z,99681.88
2022-08-31T04:16:41.226Z,99686.38
2022-08-31T04:19:47.969Z,99689.31
2022-08-31T04:22:46.014Z,99685.41
2022-08-31T04:25:49.371Z,99680.66
2022-08-31T04:28:36.957Z,99687.34
2022-08-31T04:31:27.638Z,99685.75
2022-08-31T04:34:18.712Z,99686.34
2022-08-31T04:37:08.932Z,99697.72
2022-08-31T04:39:59.346Z,99691.66
2022-08-31T04:42:47.935Z,99693.78
2022-08-31T04:45:42.298Z,99693.28
2022-08-31T04:48:32.629Z,99696.72
2022-08-31T04:51:24.891Z,99688.78
2022-08-31T04:54:15.054Z,99689.38
2022-08-31T04:57:03.331Z,99700.19
2022-08-31T04:59:53.668Z,99696.72
2022-08-31T05:03:00.413Z,99700.75
2022-08-31T05:05:50.909Z,99694.66
2022-08-31T05:08:40.174Z,99700.25
2022-08-31T05:11:29.534Z,99705.84
2022-08-31T05:14:17.621Z,99708.47
2022-08-31T05:17:14.789Z,99711.41
2022-08-31T05:20:05.328Z,99710.66
2022-08-31T05:22:53.631Z,99718.09
2022-08-31T05:25:45.114Z,99716.22
2022-08-31T05:28:34.634Z,99716.81
2022-08-31T05:31:23.441Z,99713.38
2022-08-31T05:34:15.156Z,99714.47
2022-08-31T05:37:04.581Z,99717.09
2022-08-31T05:39:54.414Z,99720.84
2022-08-31T05:42:43.461Z,99720.03
2022-08-31T05:45:34.214Z,99722.19
2022-08-31T05:48:23.666Z,99718.78
2022-08-31T05:51:20.300Z,99723.84
2022-08-31T05:54:10.842Z,99721.75
2022-08-31T05:57:01.114Z,99728.34
2022-08-31T05:59:51.620Z,99734.94
2022-08-31T06:02:40.155Z,99740.72
2022-08-31T06:05:30.884Z,99742.31
2022-08-31T06:08:27.153Z,99737.50
2022-08-31T06:11:19.458Z,99737.50
2022-08-31T06:14:08.019Z,99738.28
2022-08-31T06:16:57.146Z,99736.72
2022-08-31T06:19:45.273Z,99744.97
2022-08-31T06:22:35.695Z,99744.97
2022-08-31T06:25:26.039Z,99751.81
2022-08-31T06:28:24.553Z,99756.03
2022-08-31T06:31:18.690Z,99756.13
2022-08-31T06:34:21.149Z,99751.88
2022-08-31T06:38:03.382Z,99747.25
2022-08-31T06:42:02.423Z,99742.75
2022-08-31T06:44:59.314Z,99749.63
2022-08-31T06:48:03.659Z,99752.53
2022-08-31T06:51:00.273Z,99749.91
2022-08-31T06:53:49.533Z,99764.22
2022-08-31T06:56:57.886Z,99765.28
2022-08-31T07:00:06.190Z,99763.72
2022-08-31T07:03:33.435Z,99770.56
2022-08-31T07:06:27.647Z,99766.06
2022-08-31T07:09:18.333Z,99782.19
2022-08-31T07:12:07.679Z,99783.16
2022-08-31T07:14:55.557Z,99786.28
2022-08-31T07:17:45.067Z,99798.06
2022-08-31T07:20:33.248Z,99802.41
2022-08-31T07:23:22.929Z,99804.66
2022-08-31T07:26:22.837Z,99805.50
2022-08-31T07:29:12.062Z,99805.22
2022-08-31T07:32:00.720Z,99810.44
2022-08-31T07:34:56.316Z,99819.38
2022-08-31T07:38:09.649Z,99819.88
2022-08-31T07:41:17.041Z,99822.50
2022-08-31T07:44:05.835Z,99833.03
2022-08-31T07:46:55.451Z,99832.75
2022-08-31T07:49:51.198Z,99838.81
2022-08-31T07:53:08.721Z,99844.41
2022-08-31T07:56:18.484Z,99850.50
2022-08-31T07:59:07.577Z,99849.97
2022-08-31T08:02:00.784Z,99842.34
2022-08-31T08:04:53.456Z,99846.84
2022-08-31T08:08:10.676Z,99849.56
2022-08-31T08:11:23.309Z,99853.84
2022-08-31T08:14:41.352Z,99852.06
2022-08-31T08:17:49.563Z,99869.28
2022-08-31T08:20:42.506Z,99860.06
2022-08-31T08:23:31.595Z,99865.91
2022-08-31T08:26:32.909Z,99864.63
2022-08-31T08:29:29.050Z,99869.41
2022-08-31T08:32:23.793Z,99871.56
2022-08-31T08:35:12.643Z,99869.97
2022-08-31T08:38:07.144Z,99877.41
2022-08-31T08:40:56.400Z,99879.78
2022-08-31T08:43:52.833Z,99884.25
2022-08-31T08:46:49.725Z,99881.91
2022-08-31T08:49:43.915Z,99883.25
2022-08-31T08:52:38.433Z,99887.00
2022-08-31T08:55:36.228Z,99891.47
2022-08-31T08:58:24.648Z,99877.47
2022-08-31T09:01:20.411Z,99890.13
2022-08-31T09:04:19.430Z,99889.56
2022-08-31T09:07:58.998Z,99892.28
2022-08-31T09:10:58.136Z,99888.03
2022-08-31T09:14:06.427Z,99893.03
2022-08-31T09:17:06.005Z,99891.69
2022-08-31T09:20:00.354Z,99882.69
2022-08-31T09:22:55.838Z,99889.84
2022-08-31T09:25:52.345Z,99884.84
2022-08-31T09:29:04.030Z,99877.47
2022-08-31T09:32:06.491Z,99878.53
2022-08-31T09:35:01.753Z,99890.13
2022-08-31T09:38:02.181Z,99886.91
2022-08-31T09:40:53.181Z,99886.91
2022-08-31T09:43:41.188Z,99885.84
2022-08-31T09:46:31.726Z,99880.78
2022-08-31T09:49:25.584Z,99884.72
2022-08-31T09:52:42.417Z,99880.97
2022-08-31T09:55:30.237Z,99877.84
2022-08-31T09:58:30.933Z,99877.84
2022-08-31T10:01:32.013Z,99882.56
2022-08-31T10:04:27.256Z,99880.97
2022-08-31T10:07:29.966Z,99882.56
2022-08-31T10:10:30.223Z,99880.44
2022-08-31T10:13:26.022Z,99866.16
2022-08-31T10:16:26.750Z,99867.16
2022-08-31T10:19:21.040Z,99865.00
2022-08-31T10:22:23.230Z,99866.03
2022-08-31T10:25:31.268Z,99860.75
2022-08-31T10:28:31.844Z,99855.13
2022-08-31T10:31:25.018Z,99858.81
2022-08-31T10:34:36.211Z,99865.88
2022-08-31T10:37:34.200Z,99866.09
2022-08-31T10:40:32.252Z,99859.66
2022-08-31T10:43:24.110Z,99860.38
2022-08-31T10:46:12.528Z,99857.63
2022-08-31T10:49:04.521Z,99853.84
2022-08-31T10:52:03.382Z,99855.25
2022-08-31T10:55:06.945Z,99847.69
2022-08-31T10:58:02.521Z,99842.22
2022-08-31T11:00:56.822Z,99843.28
2022-08-31T11:04:08.842Z,99847.59
2022-08-31T11:07:10.234Z,99838.66
2022-08-31T11:10:12.146Z,99839.88
2022-08-31T11:13:07.464Z,99850.41
2022-08-31T11:16:16.436Z,99848.25
2022-08-31T11:19:49.089Z,99855.41
2022-08-31T11:23:19.690Z,99850.63
2022-08-31T11:26:48.035Z,99847.75
2022-08-31T11:29:43.338Z,99844.50
2022-08-31T11:32:39.800Z,99845.03
2022-08-31T11:36:05.628Z,99832.34
2022-08-31T11:39:26.931Z,99838.16
2022-08-31T11:43:01.311Z,99833.44
2022-08-31T11:45:51.273Z,99830.47
2022-08-31T11:49:01.149Z,99829.09
2022-08-31T11:51:49.020Z,99828.00
2022-08-31T11:55:00.254Z,99826.94
2022-08-31T11:58:18.550Z,99833.31
2022-08-31T12:01:35.975Z,99825.38
2022-08-31T12:05:03.700Z,99822.72
2022-08-31T12:07:51.584Z,99829.78
2022-08-31T12:10:55.614Z,99817.81
2022-08-31T12:13:51.961Z,99829.97
2022-08-31T12:16:57.939Z,99822.53
2022-08-31T12:20:05.658Z,99832.53
2022-08-31T12:23:35.541Z,99828.41
2022-08-31T12:26:50.953Z,99831.19
2022-08-31T12:29:41.960Z,99834.13
2022-08-31T12:32:36.330Z,99829.09
2022-08-31T12:35:27.979Z,99838.63
2022-08-31T12:38:20.753Z,99825.88
2022-08-31T12:41:12.760Z,99832.63
2022-08-31T12:44:00.702Z,99829.59
2022-08-31T12:47:06.190Z,99827.75
2022-08-31T12:50:09.675Z,99825.69
2022-08-31T12:53:24.172Z,99827.03
2022-08-31T12:56:16.792Z,99821.94
2022-08-31T12:59:19.761Z,99826.06
2022-08-31T13:02:13.334Z,99818.78
2022-08-31T13:05:05.027Z,99806.22
2022-08-31T13:07:53.754Z,99806.38
2022-08-31T13:10:41.467Z,99805.78
2022-08-31T13:13:31.084Z,99793.19
2022-08-31T13:16:19.928Z,99786.41
2022-08-31T13:19:09.713Z,99780.25
2022-08-31T13:22:00.947Z,99779.66
2022-08-31T13:24:54.193Z,99774.53
2022-08-31T13:27:49.351Z,99778.19
2022-08-31T13:30:39.216Z,99767.25
2022-08-31T13:33:31.523Z,99763.22
2022-08-31T13:36:33.241Z,99756.22
2022-08-31T13:39:27.977Z,99754.81
2022-08-31T13:42:34.213Z,99753.94
2022-08-31T13:45:29.286Z,99737.69
2022-08-31T13:48:25.049Z,99739.25
2022-08-31T13:51:20.951Z,99743.00
2022-08-31T13:54:13.989Z,99744.56
2022-08-31T13:57:20.817Z,99733.94
2022-08-31T14:00:27.414Z,99737.09
2022-08-31T14:03:46.789Z,99739.16
2022-08-31T14:06:38.991Z,99733.72
2022-08-31T14:09:26.717Z,99734.06
2022-08-31T14:12:35.035Z,99724.09
2022-08-31T14:15:36.274Z,99733.81
2022-08-31T14:18:28.612Z,99737.78
2022-08-31T14:21:23.571Z,99728.75
2022-08-31T14:24:14.459Z,99724.97
2022-08-31T14:27:02.455Z,99722.97
2022-08-31T14:29:55.205Z,99722.88
2022-08-31T14:32:44.347Z,99726.00
2022-08-31T14:35:32.856Z,99727.59
2022-08-31T14:38:20.744Z,99722.72
2022-08-31T14:41:12.864Z,99721.97
2022-08-31T14:44:07.145Z,99724.91
2022-08-31T14:46:55.064Z,99711.94
2022-08-31T14:49:45.670Z,99724.44
2022-08-31T14:52:35.593Z,99714.91
2022-08-31T14:55:26.672Z,99714.91
2022-08-31T14:58:20.246Z,99710.34
2022-08-31T15:01:11.030Z,99716.47
2022-08-31T15:04:04.172Z,99713.00
2022-08-31T15:07:09.941Z,99710.03
2022-08-31T15:09:58.030Z,99711.63
2022-08-31T15:12:46.164Z,99708.69
2022-08-31T15:15:35.854Z,99712.09
2022-08-31T15:18:24.435Z,99709.13
2022-08-31T15:21:14.774Z,99711.34
2022-08-31T15:24:03.524Z,99705.69
2022-08-31T15:26:53.787Z,99709.44
2022-08-31T15:29:41.855Z,99710.25
2022-08-31T15:32:31.649Z,99709.44
2022-08-31T15:35:24.348Z,99705.22
2022-08-31T15:38:16.243Z,99711.34
2022-08-31T15:41:08.443Z,99702.28
2022-08-31T15:43:56.876Z,99710.69
2022-08-31T15:47:02.464Z,99701.16
2022-08-31T15:49:52.021Z,99708.34
2022-08-31T15:52:44.063Z,99713.34
2022-08-31T15:55:41.077Z,99703.03
2022-08-31T15:58:30.277Z,99708.34
2022-08-31T16:01:18.541Z,99708.34
2022-08-31T16:04:07.675Z,99690.84
2022-08-31T16:06:59.421Z,99692.75
2022-08-31T16:09:47.166Z,99681.63
2022-08-31T16:12:35.373Z,99681.63
2022-08-31T16:15:25.117Z,99677.09
2022-08-31T16:18:13.424Z,99677.09
2022-08-31T16:21:08.241Z,99673.94
2022-08-31T16:24:00.974Z,99683.03
2022-08-31T16:26:54.391Z,99679.56
2022-08-31T16:29:42.932Z,99678.78
2022-08-31T16:32:32.077Z,99672.19
2022-08-31T16:35:20.668Z,99669.25
2022-08-31T16:38:08.716Z,99672.19
2022-08-31T16:41:02.902Z,99676.13
2022-08-31T16:44:09.413Z,99673.00
2022-08-31T16:47:00.768Z,99668.28
2022-08-31T16:49:48.278Z,99668.28
2022-08-31T16:52:37.020Z,99668.91
2022-08-31T16:55:24.818Z,99669.69
2022-08-31T16:58:24.876Z,99671.06
2022-08-31T17:01:25.615Z,99662.59
2022-08-31T17:04:29.243Z,99668.72
2022-08-31T17:07:25.884Z,99654.13
2022-08-31T17:10:15.087Z,99661.03
2022-08-31T17:13:02.717Z,99659.44
2022-08-31T17:15:51.864Z,99664.31
2022-08-31T17:18:44.479Z,99666.47
2022-08-31T17:21:33.878Z,99658.00
2022-08-31T17:24:25.472Z,99669.72
2022-08-31T17:27:17.129Z,99675.63
2022-08-31T17:30:08.125Z,99688.91
2022-08-31T17:32:57.378Z,99681.56
2022-08-31T17:35:45.091Z,99686.72
2022-08-31T17:38:32.736Z,99688.88
2022-08-31T17:41:20.421Z,99690.75
2022-08-31T17:44:09.333Z,99696.53
2022-08-31T17:46:59.100Z,99694.97
2022-08-31T17:49:50.006Z,99704.81
2022-08-31T17:52:37.918Z,99704.81
2022-08-31T17:55:25.618Z,99703.25
2022-08-31T17:58:13.292Z,99709.16
2022-08-31T18:01:01.696Z,99705.53
2022-08-31T18:03:49.459Z,99711.16
2022-08-31T18:06:44.932Z,99708.28
2022-08-31T18:09:37.736Z,99714.53
2022-08-31T18:12:25.928Z,99721.22
2022-08-31T18:15:19.048Z,99721.03
2022-08-31T18:18:06.797Z,99726.94
2022-08-31T18:20:55.297Z,99729.41
2022-08-31T18:23:45.100Z,99733.44
2022-08-31T18:26:36.562Z,99733.75
2022-08-31T18:29:26.559Z,99737.00
2022-08-31T18:32:14.785Z,99742.09
2022-08-31T18:35:03.761Z,99737.69
2022-08-31T18:37:51.700Z,99752.63
2022-08-31T18:40:59.004Z,99749.78
2022-08-31T18:44:04.411Z,99757.34
2022-08-31T18:46:53.130Z,99763.56
2022-08-31T18:49:43.415Z,99762.88
2022-08-31T18:52:32.142Z,99769.84
2022-08-31T18:55:20.538Z,99779.50
2022-08-31T18:58:09.876Z,99771.63
2022-08-31T19:00:59.267Z,99776.75
2022-08-31T19:03:48.005Z,99783.22
2022-08-31T19:06:36.750Z,99773.03
2022-08-31T19:09:24.774Z,99782.63
2022-08-31T19:12:16.945Z,99775.25
2022-08-31T19:15:07.804Z,99773.19
2022-08-31T19:17:55.509Z,99776.72
2022-08-31T19:20:43.505Z,99776.78
2022-08-31T19:23:31.276Z,99776.09
2022-08-31T19:26:27.000Z,99773.56
2022-08-31T19:29:23.008Z,99778.47
2022-08-31T19:32:13.974Z,99777.47
2022-08-31T19:35:02.249Z,99777.84
2022-08-31T19:37:52.118Z,99777.66
2022-08-31T19:40:41.153Z,99781.97
2022-08-31T19:43:54.433Z,99780.97
2022-08-31T19:46:40.825Z,99779.19
2022-08-31T19:49:32.774Z,99777.38
2022-08-31T19:52:21.349Z,99773.25
2022-08-31T19:55:11.332Z,99777.56
2022-08-31T19:57:59.226Z,99767.53
2022-08-31T20:00:47.375Z,99773.41
2022-08-31T20:03:36.318Z,99764.19
2022-08-31T20:06:26.555Z,99764.75
2022-08-31T20:09:15.180Z,99768.78
2022-08-31T20:12:03.637Z,99760.09
2022-08-31T20:14:51.574Z,99768.38
2022-08-31T20:17:44.483Z,99761.75
2022-08-31T20:20:36.312Z,99768.44
2022-08-31T20:23:28.076Z,99763.72
2022-08-31T20:26:16.445Z,99768.00
2022-08-31T20:29:10.325Z,99778.38
2022-08-31T20:32:00.460Z,99771.31
2022-08-31T20:34:49.927Z,99768.16
2022-08-31T20:37:37.659Z,99774.81
2022-08-31T20:40:28.747Z,99772.47
2022-08-31T20:43:17.396Z,99767.72
2022-08-31T20:46:08.793Z,99771.44
2022-08-31T20:49:22.223Z,99775.13
2022-08-31T20:52:12.600Z,99771.00
2022-08-31T20:55:03.308Z,99775.50
2022-08-31T20:57:52.765Z,99781.09
2022-08-31T21:00:45.163Z,99770.78
2022-08-31T21:03:33.123Z,99776.63
2022-08-31T21:06:26.197Z,99772.72
2022-08-31T21:09:19.304Z,99777.50
2022-08-31T21:13:01.268Z,99776.56
2022-08-31T22:33:25.462Z,99788.28
2022-08-31T22:36:30.953Z,99775.91
2022-08-31T22:39:23.780Z,99793.59
2022-08-31T22:42:12.107Z,99793.53
2022-08-31T22:45:16.207Z,99785.81
2022-08-31T22:48:59.818Z,99788.81
2022-08-31T22:53:08.353Z,99790.91
2022-08-31T22:56:54.255Z,99793.03
2022-08-31T22:59:57.386Z,99789.31
2022-08-31T23:03:16.584Z,99790.38
2022-08-31T23:06:13.369Z,99784.53
2022-08-31T23:26:13.029Z,99775.88
2022-08-31T23:29:14.176Z,99780.59
2022-08-31T23:33:13.475Z,99773.00
2022-08-31T23:46:27.054Z,99774.63
